Decoded Metar for KPBH (PHILLIPS/PRICE in WI, USA) (IATA:PBH) | Meteo·Mobile Aviation Weather
aviador You're here:

KPBH Decoded Metar

PHILLIPS/PRICE in WI, USA
Report Time2020-02-23 10:55:00
UTC Time2020-02-23 11:08:06
Flight Rules ifr IFR
Wind250° at 08 kt
W.Decomp.*RWY 24: 7.9 kt HW 1.4 kt RCW
RWY 19: 4.0 kt HW 6.9 kt RCW
Visibility9999 m
Phenomena:N/A
Clouds:Overcast 008 Hf
Ceiling800 ft
Temp-1°C (ISA -13)
Dew Point-1°C (100% RH)
AAT-6.0°C
QNH1007 hPa
Density Alt167 ft
Elevation1,473 ft
Report Wrong Elevation
Raw Report
KPBH 231055Z AUTO 25008KT 10SM OVC008 M01/M01 A2973 RMK AO2
T10101015=

Extra information for KPBH:More info

Metar Taf Metar & Taf Last 4 Metars F.Rules Stats Wind Profile Meteogram Temp Stats Airport Information Weather charts Add Link Nearby VenuesMetar ALERT Operation Metar Decoded Social comments

AIRNAV info for KPBH